Ana Sayfa
METAR-TAF:

METAR-TAF

Havaalanları :

Taşkent Uluslararası Havalimanı

Taşkent, Özbekistan

Enlem: 41-16N, Boylam: 069-16E, yükseklik: 489 m

Güncel hava durumu gözlemi

Rapor saat 01:30 UTC de 25 dakika önce yapıldı.
Rüzgar değişken yönden 2 kt
Sıcaklık 1°C
Nem 93%
Basınç 1025 hPa
Görüş mesafesi: 4000 m
1600 ft yükseklikte parçalı bulutlu
Pus

METAR: UTTT 280130Z VRB02KT 4000 BR SCT016 01/M00 Q1025 R26R/CLRD70 NOSIG

Saat: 06:55 (01:55 UTC)

Tahmin

Rapor saat 23:00 UTC de 2 saat ve 55 dakika önce yapıldı.
Ayın 28'si saat 00 UTC'den ayın 28'si saat 24 UTC'ye kadar geçerli Tahmin
Rüzgar doğudan 10 kt
Görüş mesafesi: 7000 m
Geçici
ayın 28'si saat 00 UTC'den ayın 28'si saat 04 UTC'ye kadar
Görüş mesafesi: 2000 m
Pus

TAF: UTTT 272300Z 2800/2824 09010KT 7000 NSC TEMPO 2800/2804 2000 BR

4.000'den fazla havaalanı için hava durumu gözlemleri ve tahminleri (METAR ve TAF raporları).

Kullanılabilir istasyonlar harita üzerinde sarı ve kırmızı noktalarla gösterilir.

İstasyonun adını görmek için fareyi noktanın üzerinde gezdirin.

Sonrasında hava gözlem ve tahminlerini görmek için tıklayın.

Haritayı değiştirmek için: yaklaştırmak için siyah artı işaretli yeşil düğmeye ve uzaklaştırmak için de eksi işaretli düğmeye hızla tıklayın; bitişik haritalar için yeşil okları kullanın.


METAR-TAF: